Time;durP1;ratioP1;P1;durP2;ratioP2;P2;SDS_P1;SDS_P2;PMS_P1;PMS_P2;Temp;Humidity;BMP_temperature;BMP_pressure;BME280_temperature;BME280_humidity;BME280_pressure;Samples;Min_cycle;Max_cycle;Signal;HPM_P1;HPM_P2
2022/03/07 00:00:21;;;;;;;7.83;6.10;;;;;;;-143.84;100.00;44715.84;5049540;28;20434;-75
2022/03/07 00:02:48;;;;;;;8.60;6.87;;;;;;;-143.84;100.00;44635.88;5049395;28;20478;-75
2022/03/07 00:05:17;;;;;;;8.00;6.77;;;;;;;-143.84;100.00;44588.28;5049142;28;20493;-75
2022/03/07 00:07:44;;;;;;;7.23;6.10;;;;;;;-143.84;100.00;44573.06;5049349;28;20494;-75
2022/03/07 00:10:12;;;;;;;5.87;5.33;;;;;;;-143.84;100.00;44542.59;5049164;28;20446;-75
2022/03/07 00:12:39;;;;;;;6.10;5.50;;;;;;;-143.84;100.00;44544.50;5049318;28;20430;-75
2022/03/07 00:15:06;;;;;;;7.13;6.17;;;;;;;-143.84;100.00;44529.28;5049183;28;20457;-74
2022/03/07 00:17:33;;;;;;;7.93;6.93;;;;;;;-143.84;100.00;44531.19;5049329;28;20437;-75
2022/03/07 00:20:01;;;;;;;8.23;6.87;;;;;;;-143.84;100.00;44542.59;5049478;28;20480;-75
2022/03/07 00:22:29;;;;;;;10.20;7.07;;;;;;;-143.84;100.00;44508.31;5048766;28;20442;-75
2022/03/07 00:24:56;;;;;;;8.33;7.03;;;;;;;-143.84;100.00;44447.41;5048905;28;20566;-75
2022/03/07 00:27:23;;;;;;;9.07;6.57;;;;;;;-143.84;100.00;44485.47;5048982;28;20510;-75
2022/03/07 00:29:50;;;;;;;10.03;7.20;;;;;;;-143.84;100.00;44498.81;5048889;28;20446;-75
2022/03/07 00:32:18;;;;;;;9.87;7.00;;;;;;;-143.84;100.00;44485.47;5049179;28;20450;-75
2022/03/07 00:34:45;;;;;;;8.70;7.37;;;;;;;-143.84;100.00;44455.03;5049326;28;20866;-75
2022/03/07 00:37:12;;;;;;;10.03;8.10;;;;;;;-143.84;100.00;44434.09;5049320;28;20442;-75
2022/03/07 00:39:40;;;;;;;9.60;7.47;;;;;;;-143.84;100.00;44435.97;5049258;28;20437;-75
2022/03/07 00:42:08;;;;;;;9.27;7.10;;;;;;;-143.84;100.00;44439.78;5048722;28;20445;-75
2022/03/07 00:44:35;;;;;;;7.37;6.33;;;;;;;-143.84;100.00;44458.81;5048799;28;20937;-75
2022/03/07 00:47:02;;;;;;;9.73;8.67;;;;;;;-143.84;100.00;44424.56;5048991;28;20485;-75
2022/03/07 00:49:29;;;;;;;8.20;7.17;;;;;;;-143.84;100.00;44369.34;5048862;28;20433;-75
2022/03/07 00:51:57;;;;;;;7.80;7.07;;;;;;;-143.84;100.00;44418.84;5049247;28;20499;-75
2022/03/07 00:54:24;;;;;;;8.80;7.70;;;;;;;-143.84;100.00;44367.44;5052494;28;20499;-75
2022/03/07 00:56:53;;;;;;;7.87;7.03;;;;;;;-143.84;100.00;44405.53;5052951;28;20499;-75
2022/03/07 00:59:20;;;;;;;8.30;6.43;;;;;;;-143.84;100.00;44373.16;5053145;28;20445;-75
2022/03/07 01:01:48;;;;;;;9.97;7.50;;;;;;;-143.84;100.00;44293.19;5052588;28;20442;-75
2022/03/07 01:04:16;;;;;;;11.13;7.70;;;;;;;-143.84;100.00;44239.91;5052961;28;21017;-75
2022/03/07 01:06:43;;;;;;;8.90;7.90;;;;;;;-143.84;100.00;44243.69;5052662;28;20497;-75
2022/03/07 01:09:10;;;;;;;9.00;6.80;;;;;;;-143.84;100.00;44325.56;5052711;28;20524;-75
2022/03/07 01:11:37;;;;;;;10.43;6.83;;;;;;;-143.84;100.00;44386.47;5052847;28;20460;-75
2022/03/07 01:14:07;;;;;;;7.73;6.37;;;;;;;-143.84;100.00;44388.38;5052648;28;20449;-75
2022/03/07 01:16:34;;;;;;;8.33;6.50;;;;;;;-143.84;100.00;44340.78;5052787;28;20434;-75
2022/03/07 01:19:01;;;;;;;7.20;6.50;;;;;;;-143.84;100.00;44413.13;5052905;28;21054;-75
2022/03/07 01:21:28;;;;;;;8.87;7.13;;;;;;;-143.84;100.00;44375.06;5052406;28;20426;-75
2022/03/07 01:23:55;;;;;;;8.10;7.30;;;;;;;-143.84;100.00;44378.88;5052581;28;21060;-75
2022/03/07 01:26:22;;;;;;;8.33;7.33;;;;;;;-143.84;100.00;44369.34;5052554;28;20531;-75
2022/03/07 01:28:50;;;;;;;7.53;6.57;;;;;;;-143.84;100.00;44348.41;5052352;28;20433;-75
2022/03/07 01:31:18;;;;;;;16.53;6.90;;;;;;;-143.84;100.00;44312.25;5052414;28;20503;-75
2022/03/07 01:33:45;;;;;;;10.30;7.53;;;;;;;-143.84;100.00;44264.66;5052497;28;20866;-75
2022/03/07 01:36:12;;;;;;;7.13;6.27;;;;;;;-143.84;100.00;44251.31;5051776;28;20433;-75
2022/03/07 01:38:40;;;;;;;7.70;6.77;;;;;;;-143.84;100.00;44276.06;5051698;28;20852;-75
2022/03/07 01:41:07;;;;;;;8.40;6.87;;;;;;;-143.84;100.00;44333.19;5051991;28;20434;-75
2022/03/07 01:43:34;;;;;;;6.60;6.00;;;;;;;-143.84;100.00;44297.00;5052408;28;20889;-75
2022/03/07 01:46:01;;;;;;;7.67;5.60;;;;;;;-143.84;100.00;44321.75;5051665;28;20480;-75
2022/03/07 01:48:30;;;;;;;5.97;5.43;;;;;;;-143.84;100.00;44350.31;5051215;28;20438;-75
2022/03/07 01:50:57;;;;;;;6.57;5.57;;;;;;;-143.84;100.00;44321.75;5051661;28;20523;-75
2022/03/07 01:53:25;;;;;;;6.07;5.57;;;;;;;-143.84;100.00;44321.75;5052042;28;20437;-75
2022/03/07 01:55:52;;;;;;;9.63;6.03;;;;;;;-143.84;100.00;44344.59;5051858;28;20939;-75
2022/03/07 01:58:19;;;;;;;4.93;4.53;;;;;;;-143.84;100.00;44344.59;5040886;28;20956;-75
2022/03/07 02:00:47;;;;;;;5.57;5.07;;;;;;;-143.84;100.00;44375.06;5031667;28;20500;-75
2022/03/07 02:03:14;;;;;;;5.37;4.97;;;;;;;-143.84;100.00;44258.94;5031422;28;20441;-75
2022/03/07 02:05:46;;;;;;;5.47;4.80;;;;;;;-143.84;100.00;44346.50;5032147;28;20474;-75
2022/03/07 02:08:13;;;;;;;5.83;5.30;;;;;;;-143.84;100.00;44262.75;5031782;28;20490;-75
2022/03/07 02:10:42;;;;;;;5.40;4.90;;;;;;;-143.84;100.00;44270.34;5032030;28;20473;-75
2022/03/07 02:13:13;;;;;;;8.43;5.60;;;;;;;-143.84;100.00;44262.75;5031930;28;20449;-75
2022/03/07 02:15:40;;;;;;;4.97;4.57;;;;;;;-143.84;100.00;44310.34;5031823;28;20446;-75
2022/03/07 02:18:08;;;;;;;6.43;5.70;;;;;;;-143.84;100.00;44308.44;5031455;28;20439;-76
2022/03/07 02:20:35;;;;;;;5.70;5.20;;;;;;;-143.84;100.00;44258.94;5031741;28;20524;-76
2022/03/07 02:23:04;;;;;;;6.40;5.80;;;;;;;-143.84;100.00;44312.25;5031620;28;20450;-75
2022/03/07 02:25:31;;;;;;;6.10;5.47;;;;;;;-143.84;100.00;44449.31;5031671;28;20536;-76
2022/03/07 02:27:58;;;;;;;7.20;5.37;;;;;;;-143.84;100.00;44443.59;5031711;28;20854;-76
2022/03/07 02:30:26;;;;;;;7.20;6.47;;;;;;;-143.84;100.00;44441.69;5031516;28;20439;-76
2022/03/07 02:32:53;;;;;;;6.03;5.47;;;;;;;-143.84;100.00;44456.94;5031398;28;20439;-76
2022/03/07 02:35:20;;;;;;;5.77;5.23;;;;;;;-143.84;100.00;44455.03;5041958;28;20514;-76
2022/03/07 02:37:47;;;;;;;5.57;5.17;;;;;;;-143.84;100.00;44390.28;5051606;28;20518;-75
2022/03/07 02:40:19;;;;;;;5.60;5.10;;;;;;;-143.84;100.00;44365.53;5051176;28;20446;-76
2022/03/07 02:42:46;;;;;;;5.40;5.00;;;;;;;-143.84;100.00;44384.59;5051472;28;20443;-75
2022/03/07 02:45:14;;;;;;;7.20;6.47;;;;;;;-143.84;100.00;44386.47;5051271;28;20450;-76
2022/03/07 02:47:41;;;;;;;7.00;6.30;;;;;;;-143.84;100.00;44403.63;5051032;28;20916;-76
2022/03/07 02:50:09;;;;;;;7.40;6.77;;;;;;;-143.84;100.00;44460.72;5050770;28;20442;-75
2022/03/07 02:52:36;;;;;;;7.20;6.40;;;;;;;-143.84;100.00;44397.91;5049129;28;20446;-76
2022/03/07 02:55:04;;;;;;;6.50;6.00;;;;;;;-143.84;100.00;44390.28;5063264;28;20452;-76
2022/03/07 02:57:32;;;;;;;7.20;6.50;;;;;;;-143.84;100.00;44405.53;5070840;28;20429;-75
2022/03/07 03:00:00;;;;;;;7.03;5.93;;;;;;;-143.84;100.00;44455.03;5070471;28;20456;-75
2022/03/07 03:02:27;;;;;;;9.33;7.50;;;;;;;-143.84;100.00;44546.41;5070939;28;20445;-75
2022/03/07 03:04:54;;;;;;;7.83;6.90;;;;;;;-143.84;100.00;44521.66;5070047;28;20449;-76
2022/03/07 03:07:21;;;;;;;10.70;7.53;;;;;;;-143.84;100.00;44527.38;5070074;28;20566;-76
2022/03/07 03:09:48;;;;;;;7.90;7.10;;;;;;;-143.84;100.00;44555.94;5069706;28;20433;-75
2022/03/07 03:12:15;;;;;;;8.13;7.33;;;;;;;-143.84;100.00;44582.59;5070419;28;20526;-75
2022/03/07 03:14:46;;;;;;;8.37;7.13;;;;;;;-143.84;100.00;44634.00;5070465;28;21008;-76
2022/03/07 03:17:14;;;;;;;9.30;7.83;;;;;;;-143.84;100.00;44647.31;5070175;28;20526;-76
2022/03/07 03:19:41;;;;;;;7.53;6.80;;;;;;;-143.84;100.00;44687.28;5070758;28;20437;-75
2022/03/07 03:22:09;;;;;;;7.50;6.80;;;;;;;-143.84;100.00;44685.38;5070718;28;20779;-76
2022/03/07 03:24:37;;;;;;;9.33;7.47;;;;;;;-143.84;100.00;44685.38;5070349;28;20452;-76
2022/03/07 03:27:04;;;;;;;8.50;7.60;;;;;;;-143.84;100.00;44666.34;5070011;28;20498;-75
2022/03/07 03:29:32;;;;;;;8.30;7.23;;;;;;;-143.84;100.00;44710.16;5070247;28;20770;-75
2022/03/07 03:32:00;;;;;;;8.13;7.23;;;;;;;-143.84;100.00;44670.16;5070414;28;20452;-76
2022/03/07 03:34:28;;;;;;;8.77;7.70;;;;;;;-143.84;100.00;44700.63;5070109;28;20459;-76
2022/03/07 03:36:55;;;;;;;7.73;6.93;;;;;;;-143.84;100.00;44670.16;5070355;28;20445;-75
2022/03/07 03:39:22;;;;;;;8.30;7.50;;;;;;;-143.84;100.00;44662.53;5069637;28;20491;-75
2022/03/07 03:41:49;;;;;;;7.67;6.87;;;;;;;-143.84;100.00;44647.31;5069146;28;20860;-75
2022/03/07 03:44:16;;;;;;;8.63;7.23;;;;;;;-143.84;100.00;44641.59;5070248;28;20433;-76
2022/03/07 03:46:43;;;;;;;9.37;8.03;;;;;;;-143.84;100.00;44630.19;5069821;28;20476;-75
2022/03/07 03:49:12;;;;;;;8.00;7.20;;;;;;;-143.84;100.00;44700.63;5069787;28;20445;-75
2022/03/07 03:51:39;;;;;;;10.53;7.80;;;;;;;-143.84;100.00;44698.72;5068165;28;21309;-75
2022/03/07 03:54:07;;;;;;;10.20;8.43;;;;;;;-143.84;100.00;44712.06;5049600;28;20441;-75
2022/03/07 03:56:34;;;;;;;7.47;6.33;;;;;;;-143.84;99.96;44721.56;5049505;28;20479;-75
2022/03/07 03:59:01;;;;;;;9.17;7.40;;;;;;;-143.84;99.88;44774.88;5049712;28;21008;-75
2022/03/07 04:01:28;;;;;;;8.63;7.83;;;;;;;-143.84;99.57;44788.22;5049695;28;20442;-76
2022/03/07 04:03:55;;;;;;;7.97;7.17;;;;;;;-143.84;99.98;44733.00;5049605;28;20507;-75
2022/03/07 04:06:24;;;;;;;8.27;7.13;;;;;;;-143.84;99.63;44772.97;5049108;28;21146;-76
2022/03/07 04:08:59;;;;;;;8.93;7.80;;;;;;;-143.84;100.00;44750.13;5048730;28;20483;-75
2022/03/07 04:11:26;;;;;;;9.53;7.37;;;;;;;-143.84;99.83;44774.88;5049174;28;20440;-75
2022/03/07 04:13:53;;;;;;;7.13;6.43;;;;;;;-143.84;99.66;44805.34;5049320;28;20444;-75
2022/03/07 04:16:21;;;;;;;8.77;6.90;;;;;;;-143.84;99.75;44822.47;5041451;28;20528;-76
2022/03/07 04:18:48;;;;;;;8.30;7.40;;;;;;;-143.84;99.86;44826.28;5064849;28;20871;-75
2022/03/07 04:21:15;;;;;;;8.60;7.70;;;;;;;-143.84;99.42;44866.28;5053362;28;20462;-75
2022/03/07 04:23:44;;;;;;;7.77;6.97;;;;;;;-143.84;99.59;44811.06;5060143;28;20942;-70
2022/03/07 04:26:11;;;;;;;8.93;7.80;;;;;;;-143.84;99.63;44801.53;5055442;28;20477;-72
2022/03/07 04:28:38;;;;;;;7.47;6.80;;;;;;;-143.84;99.62;44812.97;5058122;28;21012;-70
2022/03/07 04:31:05;;;;;;;8.77;7.00;;;;;;;-143.84;99.15;44910.06;5068385;28;20471;-71
2022/03/07 04:33:32;;;;;;;6.63;6.10;;;;;;;-143.84;99.12;44889.13;5056001;28;20449;-71
2022/03/07 04:35:59;;;;;;;8.30;7.23;;;;;;;-143.84;99.31;44839.63;5054489;28;20474;-77
2022/03/07 04:38:28;;;;;;;9.17;8.27;;;;;;;-143.84;99.15;44889.13;5049889;28;20438;-75
2022/03/07 04:40:57;;;;;;;8.10;7.30;;;;;;;-143.84;99.29;44864.38;5050122;28;20442;-77
2022/03/07 04:43:24;;;;;;;7.73;7.00;;;;;;;-143.84;99.17;44887.22;5040926;28;20454;-76
2022/03/07 04:45:52;;;;;;;9.07;7.67;;;;;;;-143.84;99.33;44873.88;5065122;28;20456;-76
2022/03/07 04:48:20;;;;;;;9.43;8.53;;;;;;;-143.84;99.32;44828.19;5036080;28;20486;-76
2022/03/07 04:50:47;;;;;;;11.40;8.50;;;;;;;-143.84;99.43;44862.47;5032305;28;20730;-77
2022/03/07 04:53:14;;;;;;;9.50;8.50;;;;;;;-143.84;99.32;44885.31;5039043;28;20515;-76
2022/03/07 04:55:41;;;;;;;9.50;8.20;;;;;;;-143.84;99.34;44843.44;5034943;28;20520;-76
2022/03/07 04:58:10;;;;;;;10.53;8.00;;;;;;;-143.84;99.10;44826.28;5045996;28;20881;-76
2022/03/07 05:00:37;;;;;;;10.80;8.77;;;;;;;-143.84;99.50;44852.94;5054143;28;20523;-75
2022/03/07 05:03:04;;;;;;;9.77;8.00;;;;;;;-143.84;99.26;44822.47;5053144;28;20515;-75
2022/03/07 05:05:31;;;;;;;10.43;9.30;;;;;;;-143.84;99.06;44885.31;5060956;28;20456;-76
2022/03/07 05:07:58;;;;;;;11.67;8.90;;;;;;;-143.84;98.64;44908.16;5043956;28;20509;-76
2022/03/07 05:10:25;;;;;;;9.57;8.60;;;;;;;-143.84;99.07;44923.41;5045452;28;20859;-77
2022/03/07 05:12:52;;;;;;;13.07;9.37;;;;;;;-143.84;98.89;44938.63;5045501;28;20453;-75
2022/03/07 05:15:21;;;;;;;10.57;9.47;;;;;;;-143.84;98.58;44898.66;5051847;28;20855;-75
2022/03/07 05:17:53;;;;;;;11.40;9.10;;;;;;;-143.84;98.85;44919.59;5041457;28;20770;-76
2022/03/07 05:20:22;;;;;;;11.50;9.03;;;;;;;-143.84;98.92;44951.97;5042459;28;20466;-75
2022/03/07 05:22:49;;;;;;;10.83;8.27;;;;;;;-143.84;99.12;44873.88;5038947;28;21044;-76
2022/03/07 05:25:18;;;;;;;9.83;8.83;;;;;;;-143.84;98.85;44881.50;5047313;28;20446;-75
2022/03/07 05:27:46;;;;;;;10.20;9.13;;;;;;;-143.84;98.82;44921.50;5043597;28;20540;-75
2022/03/07 05:30:16;;;;;;;11.47;8.73;;;;;;;-143.84;98.29;44932.91;5041299;28;20453;-78
2022/03/07 05:32:45;;;;;;;10.83;8.93;;;;;;;-143.84;98.44;44978.63;5040317;28;20456;-77
2022/03/07 05:35:12;;;;;;;10.33;9.27;;;;;;;-143.84;98.25;44972.91;5049093;28;20458;-77
2022/03/07 05:37:40;;;;;;;9.90;8.43;;;;;;;-143.84;98.47;44938.63;5049295;28;20429;-77
2022/03/07 05:40:09;;;;;;;11.27;9.07;;;;;;;-143.84;98.39;44921.50;5053258;28;20496;-77
2022/03/07 05:42:36;;;;;;;10.37;8.97;;;;;;;-143.84;98.44;44940.53;5053836;28;20514;-77
2022/03/07 05:45:05;;;;;;;16.03;9.10;;;;;;;-143.84;98.06;44921.50;5053391;28;20496;-78
2022/03/07 05:47:33;;;;;;;9.60;8.60;;;;;;;-143.84;97.95;44967.19;5052477;28;20481;-77
2022/03/07 05:50:01;;;;;;;13.00;10.57;;;;;;;-143.84;97.51;44980.53;5052097;28;21048;-76
2022/03/07 05:52:29;;;;;;;14.20;10.47;;;;;;;-143.84;97.22;45001.47;5051775;28;20527;-76
2022/03/07 05:54:56;;;;;;;12.80;9.50;;;;;;;-143.84;96.64;45016.69;5052310;28;20441;-76
2022/03/07 05:57:23;;;;;;;10.50;8.77;;;;;;;-143.84;96.50;45070.00;5052059;28;20447;-74
2022/03/07 05:59:50;;;;;;;16.30;11.63;;;;;;;-143.84;96.65;45049.06;5051799;28;20936;-76
2022/03/07 06:02:17;;;;;;;9.93;8.80;;;;;;;-143.84;96.16;45081.44;5051691;28;21018;-77
2022/03/07 06:04:45;;;;;;;9.63;8.60;;;;;;;-143.84;95.97;45071.91;5051867;28;20504;-77
2022/03/07 06:07:13;;;;;;;9.27;8.37;;;;;;;-143.84;96.28;45079.53;5051730;28;20516;-74
2022/03/07 06:09:41;;;;;;;12.00;9.60;;;;;;;-143.84;95.99;45092.88;5051971;28;20454;-75
2022/03/07 06:12:09;;;;;;;10.50;9.00;;;;;;;-143.84;95.62;45113.81;5052009;28;20504;-75
2022/03/07 06:14:36;;;;;;;12.00;9.47;;;;;;;-143.84;94.99;45094.78;5052050;28;20915;-76
2022/03/07 06:17:04;;;;;;;15.17;11.07;;;;;;;-143.84;95.33;45098.56;5051533;28;20963;-75
2022/03/07 06:19:31;;;;;;;12.97;10.07;;;;;;;-143.84;94.73;45119.53;5051405;28;20504;-75
2022/03/07 06:21:59;;;;;;;12.67;10.20;;;;;;;-143.84;94.65;45132.84;5051325;28;20438;-76
2022/03/07 06:24:29;;;;;;;11.83;9.83;;;;;;;-143.84;94.64;45138.56;5051509;28;20451;-76
2022/03/07 06:26:57;;;;;;;13.10;10.13;;;;;;;-143.84;94.77;45138.56;5051595;28;20481;-76
2022/03/07 06:29:25;;;;;;;15.37;10.30;;;;;;;-143.84;94.13;45138.56;5051777;28;20872;-76
2022/03/07 06:31:52;;;;;;;16.60;10.57;;;;;;;-143.84;95.02;45161.41;5051257;28;20503;-76
2022/03/07 06:34:19;;;;;;;19.53;10.97;;;;;;;-143.84;94.73;45151.91;5051663;28;20837;-76
2022/03/07 06:36:46;;;;;;;19.80;12.83;;;;;;;-143.84;93.92;45150.00;5051498;28;20435;-76
2022/03/07 06:39:13;;;;;;;11.93;9.60;;;;;;;-143.84;93.76;45140.47;5050909;28;20440;-76
2022/03/07 06:41:42;;;;;;;13.40;10.30;;;;;;;-143.84;93.82;45153.81;5050744;28;20438;-76
2022/03/07 06:44:09;;;;;;;12.00;9.77;;;;;;;-143.84;93.79;45127.13;5051459;28;20502;-76
2022/03/07 06:46:36;;;;;;;12.70;10.70;;;;;;;-143.84;93.33;45163.31;5051031;28;20446;-76
2022/03/07 06:49:03;;;;;;;12.10;10.07;;;;;;;-143.84;93.63;45155.69;5051297;28;20517;-76
2022/03/07 06:51:31;;;;;;;19.10;9.60;;;;;;;-143.84;92.74;45140.47;5050278;28;20438;-76
2022/03/07 06:53:58;;;;;;;13.47;10.57;;;;;;;-143.84;92.23;45165.22;5050899;28;20673;-76
2022/03/07 06:56:25;;;;;;;15.17;9.60;;;;;;;-143.84;91.97;45191.88;5050990;28;20449;-76
2022/03/07 06:58:53;;;;;;;10.70;8.80;;;;;;;-143.84;91.54;45188.06;5051120;28;20444;-76
2022/03/07 07:01:21;;;;;;;13.53;10.33;;;;;;;-143.84;91.95;45169.03;5050886;28;20503;-76
2022/03/07 07:03:48;;;;;;;10.73;9.57;;;;;;;-143.84;91.95;45186.16;5050523;28;20440;-75
2022/03/07 07:06:15;;;;;;;10.30;8.40;;;;;;;-143.84;91.83;45184.25;5050802;28;20862;-75
2022/03/07 07:08:42;;;;;;;11.10;9.20;;;;;;;-143.84;91.82;45174.75;5050604;28;20495;-75
2022/03/07 07:11:09;;;;;;;12.20;9.60;;;;;;;-143.84;91.69;45140.47;5050346;28;21126;-75
2022/03/07 07:13:36;;;;;;;12.10;8.57;;;;;;;-143.84;91.00;45142.38;5050633;28;20442;-75
2022/03/07 07:16:06;;;;;;;10.17;8.57;;;;;;;-143.84;91.15;45184.25;5050812;28;20440;-75
2022/03/07 07:18:33;;;;;;;9.83;8.83;;;;;;;-143.84;91.06;45186.16;5050385;28;20450;-74
2022/03/07 07:21:00;;;;;;;11.80;8.83;;;;;;;-143.84;90.94;45163.31;5050517;28;20434;-75
2022/03/07 07:23:27;;;;;;;10.37;8.97;;;;;;;-143.84;91.07;45130.94;5050397;28;20446;-76
2022/03/07 07:25:55;;;;;;;8.80;7.63;;;;;;;-143.84;90.97;45178.56;5049839;28;20437;-76
2022/03/07 07:28:23;;;;;;;10.60;7.30;;;;;;;-143.84;90.69;45136.66;5049627;28;20483;-76
2022/03/07 07:30:50;;;;;;;11.17;8.93;;;;;;;-143.84;90.09;45169.03;5050228;28;20445;-76
2022/03/07 07:33:19;;;;;;;9.47;8.57;;;;;;;-143.84;90.16;45178.56;5050392;28;20542;-76
2022/03/07 07:35:47;;;;;;;10.93;9.27;;;;;;;-143.84;89.82;45180.47;5050080;28;21408;-76
2022/03/07 07:38:14;;;;;;;10.60;9.13;;;;;;;-143.84;89.24;45165.22;5049938;28;20448;-76
2022/03/07 07:40:42;;;;;;;10.57;8.30;;;;;;;-143.84;89.27;45186.16;5050326;28;20825;-76
2022/03/07 07:43:09;;;;;;;10.50;8.83;;;;;;;-143.84;89.58;45178.56;5050209;28;21156;-76
2022/03/07 07:45:37;;;;;;;9.70;8.70;;;;;;;-143.84;89.24;45199.50;5050430;28;20440;-76
2022/03/07 07:48:05;;;;;;;9.77;8.50;;;;;;;-143.84;88.64;45176.66;5050144;28;20489;-76
2022/03/07 07:50:33;;;;;;;10.10;9.10;;;;;;;-143.84;88.64;45174.75;5049695;28;20442;-75
2022/03/07 07:53:01;;;;;;;9.43;8.37;;;;;;;-143.84;88.39;45188.06;5049658;28;21029;-76
2022/03/07 07:55:28;;;;;;;11.03;8.17;;;;;;;-143.84;87.86;45197.59;5049021;28;20433;-76
2022/03/07 07:57:55;;;;;;;10.90;8.77;;;;;;;-143.84;88.42;45199.50;5049581;28;20461;-76
2022/03/07 08:00:23;;;;;;;10.93;8.40;;;;;;;-143.84;87.69;45163.31;5049909;28;20437;-76
2022/03/07 08:02:51;;;;;;;9.50;8.57;;;;;;;-143.84;87.47;45195.69;5049446;28;20433;-76
2022/03/07 08:05:19;;;;;;;12.03;8.60;;;;;;;-143.84;86.86;45189.97;5049813;28;20437;-76
2022/03/07 08:07:48;;;;;;;9.00;7.97;;;;;;;-143.84;85.96;45174.75;5049246;28;21002;-76
2022/03/07 08:10:17;;;;;;;10.63;8.13;;;;;;;-143.84;86.84;45174.75;5049239;28;20955;-76
2022/03/07 08:12:46;;;;;;;8.70;7.90;;;;;;;-143.84;87.02;45197.59;5049343;28;20845;-76
2022/03/07 08:15:13;;;;;;;14.30;9.53;;;;;;;-143.84;86.75;45153.81;5049501;28;20863;-75
2022/03/07 08:17:46;;;;;;;11.23;10.03;;;;;;;-143.84;86.66;45161.41;5048865;28;20442;-76
2022/03/07 08:20:13;;;;;;;8.53;7.73;;;;;;;-143.84;87.30;45207.13;5049071;28;20552;-75
2022/03/07 08:22:41;;;;;;;11.30;7.67;;;;;;;-143.84;87.50;45188.06;5048574;28;20441;-75
2022/03/07 08:25:11;;;;;;;11.53;9.40;;;;;;;-143.84;88.30;45212.84;5048717;28;20531;-75
2022/03/07 08:27:38;;;;;;;11.40;9.17;;;;;;;-143.84;88.93;45209.03;5048804;28;20488;-75
2022/03/07 08:30:08;;;;;;;11.33;9.30;;;;;;;-143.84;88.56;45178.56;5047847;28;20469;-76
2022/03/07 08:32:36;;;;;;;11.80;9.67;;;;;;;-143.84;89.11;45178.56;5047991;28;20517;-75
2022/03/07 08:35:05;;;;;;;11.53;9.43;;;;;;;-143.84;89.33;45184.25;5048250;28;20448;-76
2022/03/07 08:37:32;;;;;;;13.00;9.80;;;;;;;-143.84;89.57;45186.16;5048787;28;20454;-75
2022/03/07 08:40:00;;;;;;;11.43;10.23;;;;;;;-143.84;90.49;45199.50;5048841;28;20836;-75
2022/03/07 08:42:29;;;;;;;11.60;9.90;;;;;;;-143.84;90.30;45155.69;5049105;28;20448;-75
2022/03/07 08:44:56;;;;;;;12.97;10.73;;;;;;;-143.84;90.67;45136.66;5048995;28;20447;-75
2022/03/07 08:47:23;;;;;;;15.47;10.40;;;;;;;-143.84;90.53;45170.94;5048805;28;20443;-75
2022/03/07 08:49:50;;;;;;;11.33;9.43;;;;;;;-143.84;90.46;45197.59;5049005;28;20520;-75
2022/03/07 08:52:17;;;;;;;15.17;10.37;;;;;;;-143.84;90.15;45161.41;5049335;28;20520;-75
2022/03/07 08:54:46;;;;;;;12.40;10.07;;;;;;;-143.84;90.51;45159.50;5048906;28;21019;-76
2022/03/07 08:57:14;;;;;;;14.00;11.17;;;;;;;-143.84;90.53;45163.31;5049241;28;20443;-76
2022/03/07 08:59:43;;;;;;;12.73;10.93;;;;;;;-143.84;89.84;45170.94;5048913;28;20528;-75
2022/03/07 09:02:11;;;;;;;13.00;9.83;;;;;;;-143.84;89.44;45155.69;5048763;28;20499;-75
2022/03/07 09:04:39;;;;;;;12.63;10.80;;;;;;;-143.84;89.19;45161.41;5048605;28;20808;-75
2022/03/07 09:07:07;;;;;;;14.73;10.97;;;;;;;-143.84;89.52;45186.16;5048650;28;20907;-75
2022/03/07 09:09:35;;;;;;;11.83;10.33;;;;;;;-143.84;89.35;45159.50;5049270;28;20489;-76
2022/03/07 09:12:03;;;;;;;12.83;10.67;;;;;;;-143.84;89.35;45165.22;5048020;28;20511;-76
2022/03/07 09:14:31;;;;;;;11.40;10.03;;;;;;;-143.84;89.43;45150.00;5050364;28;20449;-75
2022/03/07 09:17:00;;;;;;;13.80;11.30;;;;;;;-143.84;89.42;45155.69;5052290;28;20441;-76
2022/03/07 09:19:27;;;;;;;17.30;10.67;;;;;;;-143.84;88.42;45191.88;5052102;28;20437;-76
2022/03/07 09:21:55;;;;;;;12.87;10.40;;;;;;;-143.84;88.73;45180.47;5052746;28;20452;-76
2022/03/07 09:24:23;;;;;;;10.70;9.10;;;;;;;-143.84;88.06;45174.75;5052574;28;20942;-76
2022/03/07 09:26:50;;;;;;;10.13;9.13;;;;;;;-143.84;87.84;45142.38;5053028;28;20914;-76
2022/03/07 09:29:18;;;;;;;11.53;10.33;;;;;;;-143.84;88.22;45186.16;5052664;28;20478;-76
2022/03/07 09:31:46;;;;;;;14.60;10.43;;;;;;;-143.84;88.52;45180.47;5052567;28;20447;-76
2022/03/07 09:34:15;;;;;;;11.57;10.40;;;;;;;-143.84;89.38;45186.16;5052150;28;20503;-76
2022/03/07 09:36:42;;;;;;;12.90;10.93;;;;;;;-143.84;89.24;45161.41;5052695;28;20446;-76
2022/03/07 09:39:09;;;;;;;12.70;10.50;;;;;;;-143.84;88.81;45178.56;5052614;28;20447;-76
2022/03/07 09:41:36;;;;;;;11.40;10.20;;;;;;;-143.84;88.62;45167.13;5052678;28;20860;-76
2022/03/07 09:44:04;;;;;;;11.77;9.43;;;;;;;-143.84;88.96;45153.81;5052181;28;20449;-76
2022/03/07 09:46:31;;;;;;;11.20;9.63;;;;;;;-143.84;89.47;45144.28;5052835;28;20437;-76
2022/03/07 09:49:00;;;;;;;12.07;10.03;;;;;;;-143.84;89.01;45184.25;5052490;28;20481;-76
2022/03/07 09:51:29;;;;;;;12.00;10.10;;;;;;;-143.84;89.05;45197.59;5052381;28;20450;-76
2022/03/07 09:53:57;;;;;;;11.00;9.67;;;;;;;-143.84;89.08;45157.59;5052667;28;20851;-76
2022/03/07 09:56:26;;;;;;;10.93;9.33;;;;;;;-143.84;89.38;45184.25;5052494;28;20503;-76
2022/03/07 09:58:57;;;;;;;9.57;8.50;;;;;;;-143.84;89.54;45189.97;5051818;28;20579;-76
2022/03/07 10:01:24;;;;;;;11.83;10.63;;;;;;;-143.84;89.38;45205.22;5052268;28;20449;-76
2022/03/07 10:03:53;;;;;;;11.03;9.93;;;;;;;-143.84;89.92;45151.91;5052488;28;20503;-76
2022/03/07 10:06:21;;;;;;;11.10;9.57;;;;;;;-143.84;89.41;45170.94;5052099;28;20451;-76
2022/03/07 10:08:58;;;;;;;11.03;9.60;;;;;;;-143.84;90.18;45216.63;5032441;28;20472;-76
2022/03/07 10:11:26;;;;;;;11.33;9.73;;;;;;;-143.84;90.32;45144.28;5032064;28;20524;-76
2022/03/07 10:13:55;;;;;;;11.80;10.03;;;;;;;-143.84;89.90;45209.03;5032111;28;20496;-76
2022/03/07 10:16:23;;;;;;;12.10;10.77;;;;;;;-143.84;90.04;45172.84;5032103;28;20508;-76
2022/03/07 10:18:52;;;;;;;13.57;10.60;;;;;;;-143.84;89.51;45167.13;5032051;28;20884;-76
2022/03/07 10:21:24;;;;;;;11.40;9.60;;;;;;;-143.84;89.26;45148.09;5031899;28;21321;-76
2022/03/07 10:23:53;;;;;;;10.67;9.67;;;;;;;-143.84;89.62;45178.56;5031602;28;21013;-76
2022/03/07 10:26:22;;;;;;;10.00;8.67;;;;;;;-143.84;89.30;45201.41;5031477;28;20446;-75
2022/03/07 10:28:54;;;;;;;12.33;9.80;;;;;;;-143.84;89.94;45121.44;5030570;28;20478;-76
2022/03/07 10:31:22;;;;;;;11.73;9.40;;;;;;;-143.84;89.57;45159.50;5031277;28;20434;-75
2022/03/07 10:34:01;;;;;;;24.03;10.03;;;;;;;-143.84;89.64;45167.13;5031549;28;20446;-76
2022/03/07 10:36:40;;;;;;;14.23;10.27;;;;;;;-143.84;89.89;45163.31;5031174;28;20521;-76
2022/03/07 10:39:09;;;;;;;14.10;10.90;;;;;;;-143.84;89.80;45155.69;5031270;28;20517;-76
2022/03/07 10:41:40;;;;;;;11.43;9.80;;;;;;;-143.84;89.70;45167.13;5031253;28;21259;-76
2022/03/07 10:44:09;;;;;;;11.37;10.17;;;;;;;-143.84;89.99;45176.66;5031227;28;20450;-75
2022/03/07 10:46:36;;;;;;;11.07;10.03;;;;;;;-143.84;88.88;45176.66;5031022;28;20450;-75
2022/03/07 10:49:07;;;;;;;14.13;10.13;;;;;;;-143.84;89.19;45167.13;5031126;28;21361;-75
2022/03/07 10:51:34;;;;;;;13.30;10.57;;;;;;;-143.84;89.17;45189.97;5031185;28;20454;-75
2022/03/07 10:54:11;;;;;;;13.13;10.30;;;;;;;-143.84;89.47;45178.56;5030775;28;20450;-75
2022/03/07 10:56:49;;;;;;;11.70;10.17;;;;;;;-143.84;89.24;45188.06;5030878;28;20524;-75
2022/03/07 10:59:27;;;;;;;11.30;9.83;;;;;;;-143.84;89.30;45159.50;5031057;28;20446;-76
2022/03/07 11:02:00;;;;;;;11.53;10.33;;;;;;;-143.84;89.34;45186.16;5030893;28;20948;-75
2022/03/07 11:04:27;;;;;;;12.43;10.87;;;;;;;-143.84;88.52;45169.03;5030966;28;20972;-76
2022/03/07 11:06:54;;;;;;;12.37;11.07;;;;;;;-143.84;87.82;45170.94;5037738;28;20500;-76
2022/03/07 11:09:22;;;;;;;12.00;10.70;;;;;;;-143.84;88.64;45197.59;5056765;28;20477;-76
2022/03/07 11:11:51;;;;;;;12.80;10.47;;;;;;;-143.84;87.93;45155.69;5052328;28;20560;-76